Aérodrome :
LOGIN :

S'inscrire | Disclaimer

   EN    FR    IT 

 










Légende :    VFR   VFR Marginal   IFR   IFR Intensif   IFR Très Intensif
Visi : 
Plafond : 
>= 8 km
>= 3000ft
5 à 8 km
1000 à 3000 ft
1500m à 5 km
500 à 1000 ft
800 à 1500m
200 à 500 ft
< 800m
< 200 ft
Symboles :   Orages  Brouillard  Fortes neiges  Fortes précipitations  Vent > 20 kt
SIGMETs :   Divers  Orages  Givrage  Turbulence  Onde Orograph.  Cendres Volcan.






- Altitude de l'aérodrome : 84 ft


LFBC - Cazaux

DERNIER METAR :
  • 030930Z AUTO 23009KT 200V270 9999 FEW018/// SCT044/// BKN062/// ///TCU 13/10 Q1007 TEMPO 3000 RA SCT007 BECMG 24015G25KT

METARs EXPIRÉS :
  • 030900Z AUTO 24008KT 9999 SCT019/// SCT031/// BKN047/// ///TCU 11/10 Q1008 TEMPO 3000 RA SCT007 BECMG 24015G25KT
  • 030830Z AUTO 25008KT 200V280 9999 DZ FEW015 SCT025 BKN044 12/10 Q1008 TEMPO 3000 RA BECMG 24015G25KT
  • 030800Z AUTO 28007KT 240V320 9999 BKN018/// BKN025/// OVC047/// ///TCU 11/10 Q1009 TEMPO 3000 RA SCT005
  • 030730Z AUTO 25011KT 9999 RA FEW015/// SCT025/// BKN033/// ///TCU 11/10 Q1009 TEMPO 3000 RA SCT005
  • 030700Z AUTO 24006KT 210V290 9999 BKN017/// BKN025/// BKN034/// ///TCU 11/10 Q1010 TEMPO 3000 RA SCT005

TAF TAF LFBC
Valide du 03 à 09h jusqu'au 04 à 09h UTC


030800Z 0309/0409 24010KT 9999 SCT015 BKN030
TEMPO 0309/0314 3000 RA SCT007
BECMG 0310/0312 24015G25KT
BECMG 0312/0314 4000 RA
TEMPO 0316/0324 24020G40KT 2500 SHRA SCT008 BKN015TCU
PROB40
TEMPO 0320/0324 24025G50KT 2000 TSRA BKN008 BKN020CB
BECMG 0400/0402 30015G30KT 9999 NSW SCT040
TEMPO 0402/0409 3000 SHRA BKN025CB
PROB30
TEMPO 0402/0409 30020G40KT 2000 TSRA BKN008 BKN020CB



MET'MAP, la Météo Aéronautique d'un coup d'oeil ! - Copyright ORBIFLY Décembre 2007 - Disclaimer

ORBIFLY MET'MAP TEAM :

Programmation & Développement : Alexandra Zaïnal
Sur une idée originale de : Baudouin d'Aumeries
Assistance à la programmation : Marc-Olivier Méhu
Soutien technique & logistique : Manuel Goepfert

Contact : metmap@orbifly.com




SOURCES & CREDITS :

   NOAA